sensor_id;sensor_type;location;lat;lon;timestamp;pressure;altitude;pressure_sealevel;temperature
25514;BMP180;48128;54.242;10.280;2022-12-18T07:34:48;102619.00;;;-9.00
25514;BMP180;48128;54.242;10.280;2022-12-18T07:37:15;102618.00;;;-9.00
25514;BMP180;48128;54.242;10.280;2022-12-18T07:39:42;102628.00;;;-8.90
25514;BMP180;48128;54.242;10.280;2022-12-18T07:42:08;102625.00;;;-8.90
25514;BMP180;48128;54.242;10.280;2022-12-18T07:45:05;102641.00;;;-8.70
25514;BMP180;48128;54.242;10.280;2022-12-18T07:47:34;102655.00;;;-8.70
25514;BMP180;48128;54.242;10.280;2022-12-18T07:50:02;102648.00;;;-8.60
25514;BMP180;48128;54.242;10.280;2022-12-18T07:52:29;102639.00;;;-8.50
25514;BMP180;48128;54.242;10.280;2022-12-18T07:54:56;102639.00;;;-8.50
25514;BMP180;48128;54.242;10.280;2022-12-18T07:57:23;102631.00;;;-8.50
25514;BMP180;48128;54.242;10.280;2022-12-18T08:00:10;102642.00;;;-8.50
25514;BMP180;48128;54.242;10.280;2022-12-18T08:02:37;102653.00;;;-8.50
25514;BMP180;48128;54.242;10.280;2022-12-18T08:05:04;102662.00;;;-8.50
25514;BMP180;48128;54.242;10.280;2022-12-18T08:07:32;102670.00;;;-8.40
25514;BMP180;48128;54.242;10.280;2022-12-18T08:09:59;102652.00;;;-8.40
25514;BMP180;48128;54.242;10.280;2022-12-18T08:12:26;102646.00;;;-8.40
25514;BMP180;48128;54.242;10.280;2022-12-18T08:14:53;102646.00;;;-8.30
25514;BMP180;48128;54.242;10.280;2022-12-18T08:17:20;102654.00;;;-8.40
25514;BMP180;48128;54.242;10.280;2022-12-18T08:19:46;102654.00;;;-8.30
25514;BMP180;48128;54.242;10.280;2022-12-18T08:22:13;102653.00;;;-8.30
25514;BMP180;48128;54.242;10.280;2022-12-18T08:24:40;102657.00;;;-8.20
25514;BMP180;48128;54.242;10.280;2022-12-18T08:27:06;102630.00;;;-8.10
25514;BMP180;48128;54.242;10.280;2022-12-18T08:29:57;102633.00;;;-8.10
25514;BMP180;48128;54.242;10.280;2022-12-18T08:32:29;102630.00;;;-8.00
25514;BMP180;48128;54.242;10.280;2022-12-18T08:34:58;102645.00;;;-8.00
25514;BMP180;48128;54.242;10.280;2022-12-18T08:37:25;102634.00;;;-7.90
25514;BMP180;48128;54.242;10.280;2022-12-18T08:39:53;102641.00;;;-7.80
25514;BMP180;48128;54.242;10.280;2022-12-18T08:42:20;102644.00;;;-7.80
25514;BMP180;48128;54.242;10.280;2022-12-18T08:45:06;102643.00;;;-7.70
25514;BMP180;48128;54.242;10.280;2022-12-18T08:47:33;102640.00;;;-7.70
25514;BMP180;48128;54.242;10.280;2022-12-18T08:49:59;102632.00;;;-7.60
25514;BMP180;48128;54.242;10.280;2022-12-18T08:52:26;102627.00;;;-7.50
25514;BMP180;48128;54.242;10.280;2022-12-18T08:54:54;102629.00;;;-7.50
25514;BMP180;48128;54.242;10.280;2022-12-18T08:57:21;102640.00;;;-7.40
25514;BMP180;48128;54.242;10.280;2022-12-18T08:59:48;102623.00;;;-7.40
25514;BMP180;48128;54.242;10.280;2022-12-18T09:02:15;102635.00;;;-7.30
25514;BMP180;48128;54.242;10.280;2022-12-18T09:04:42;102650.00;;;-7.20
25514;BMP180;48128;54.242;10.280;2022-12-18T09:07:11;102648.00;;;-7.20
25514;BMP180;48128;54.242;10.280;2022-12-18T09:09:38;102659.00;;;-7.20
25514;BMP180;48128;54.242;10.280;2022-12-18T09:12:05;102656.00;;;-7.10
25514;BMP180;48128;54.242;10.280;2022-12-18T09:14:32;102655.00;;;-7.00
25514;BMP180;48128;54.242;10.280;2022-12-18T09:16:59;102651.00;;;-7.00
25514;BMP180;48128;54.242;10.280;2022-12-18T09:19:25;102665.00;;;-6.90
25514;BMP180;48128;54.242;10.280;2022-12-18T09:21:52;102664.00;;;-6.90
25514;BMP180;48128;54.242;10.280;2022-12-18T09:24:19;102666.00;;;-6.80
25514;BMP180;48128;54.242;10.280;2022-12-18T09:26:46;102659.00;;;-6.70
25514;BMP180;48128;54.242;10.280;2022-12-18T09:29:14;102663.00;;;-6.60
25514;BMP180;48128;54.242;10.280;2022-12-18T09:31:42;102665.00;;;-6.50
25514;BMP180;48128;54.242;10.280;2022-12-18T09:34:09;102657.00;;;-6.50
25514;BMP180;48128;54.242;10.280;2022-12-18T09:36:36;102650.00;;;-6.30
25514;BMP180;48128;54.242;10.280;2022-12-18T09:39:03;102658.00;;;-6.30
25514;BMP180;48128;54.242;10.280;2022-12-18T09:41:44;102679.00;;;-6.10
25514;BMP180;48128;54.242;10.280;2022-12-18T09:46:46;102673.00;;;-5.90
25514;BMP180;48128;54.242;10.280;2022-12-18T09:49:16;102674.00;;;-5.80
25514;BMP180;48128;54.242;10.280;2022-12-18T09:54:21;102665.00;;;-5.60
25514;BMP180;48128;54.242;10.280;2022-12-18T09:56:49;102671.00;;;-5.50
25514;BMP180;48128;54.242;10.280;2022-12-18T09:59:25;102665.00;;;-5.50
25514;BMP180;48128;54.242;10.280;2022-12-18T10:01:54;102664.00;;;-5.40
25514;BMP180;48128;54.242;10.280;2022-12-18T10:04:20;102676.00;;;-5.30
25514;BMP180;48128;54.242;10.280;2022-12-18T10:07:23;102675.00;;;-5.20
25514;BMP180;48128;54.242;10.280;2022-12-18T10:10:10;102675.00;;;-5.10
25514;BMP180;48128;54.242;10.280;2022-12-18T10:12:43;102688.00;;;-5.10
25514;BMP180;48128;54.242;10.280;2022-12-18T10:15:24;102708.00;;;-5.00
25514;BMP180;48128;54.242;10.280;2022-12-18T10:18:01;102702.00;;;-5.00
25514;BMP180;48128;54.242;10.280;2022-12-18T10:20:37;102713.00;;;-4.90
25514;BMP180;48128;54.242;10.280;2022-12-18T10:23:33;102702.00;;;-4.70
25514;BMP180;48128;54.242;10.280;2022-12-18T10:26:13;102687.00;;;-4.60
25514;BMP180;48128;54.242;10.280;2022-12-18T10:28:41;102683.00;;;-4.40
25514;BMP180;48128;54.242;10.280;2022-12-18T10:31:22;102703.00;;;-4.30
25514;BMP180;48128;54.242;10.280;2022-12-18T10:33:51;102717.00;;;-4.20
25514;BMP180;48128;54.242;10.280;2022-12-18T10:36:18;102722.00;;;-4.10
25514;BMP180;48128;54.242;10.280;2022-12-18T10:38:45;102718.00;;;-3.90
25514;BMP180;48128;54.242;10.280;2022-12-18T10:43:47;102732.00;;;-3.60
25514;BMP180;48128;54.242;10.280;2022-12-18T10:46:16;102748.00;;;-3.60
25514;BMP180;48128;54.242;10.280;2022-12-18T10:51:34;102747.00;;;-3.40
25514;BMP180;48128;54.242;10.280;2022-12-18T10:54:13;102730.00;;;-3.40
25514;BMP180;48128;54.242;10.280;2022-12-18T10:56:41;102726.00;;;-3.30
25514;BMP180;48128;54.242;10.280;2022-12-18T10:59:12;102751.00;;;-3.40
25514;BMP180;48128;54.242;10.280;2022-12-18T11:01:50;102727.00;;;-3.40
25514;BMP180;48128;54.242;10.280;2022-12-18T11:04:22;102721.00;;;-3.40
25514;BMP180;48128;54.242;10.280;2022-12-18T11:07:00;102729.00;;;-3.40
25514;BMP180;48128;54.242;10.280;2022-12-18T11:09:31;102716.00;;;-3.40
25514;BMP180;48128;54.242;10.280;2022-12-18T11:12:04;102711.00;;;-3.40
25514;BMP180;48128;54.242;10.280;2022-12-18T11:14:34;102720.00;;;-3.40
25514;BMP180;48128;54.242;10.280;2022-12-18T11:17:20;102725.00;;;-3.30
25514;BMP180;48128;54.242;10.280;2022-12-18T11:19:56;102713.00;;;-3.20
25514;BMP180;48128;54.242;10.280;2022-12-18T11:22:30;102713.00;;;-3.20
25514;BMP180;48128;54.242;10.280;2022-12-18T11:25:04;102726.00;;;-3.20
25514;BMP180;48128;54.242;10.280;2022-12-18T11:28:03;102705.00;;;-3.20
25514;BMP180;48128;54.242;10.280;2022-12-18T11:30:35;102695.00;;;-3.30
25514;BMP180;48128;54.242;10.280;2022-12-18T11:33:40;102696.00;;;-3.40
25514;BMP180;48128;54.242;10.280;2022-12-18T11:36:00;102690.00;;;-3.50
25514;BMP180;48128;54.242;10.280;2022-12-18T11:38:37;102662.00;;;-3.60
25514;BMP180;48128;54.242;10.280;2022-12-18T11:46:37;102677.00;;;-3.70
25514;BMP180;48128;54.242;10.280;2022-12-18T11:49:28;102681.00;;;-3.60
25514;BMP180;48128;54.242;10.280;2022-12-18T11:52:09;102689.00;;;-3.60
25514;BMP180;48128;54.242;10.280;2022-12-18T11:54:36;102682.00;;;-3.50
25514;BMP180;48128;54.242;10.280;2022-12-18T11:57:23;102664.00;;;-3.40
25514;BMP180;48128;54.242;10.280;2022-12-18T12:11:08;102646.00;;;-2.90
25514;BMP180;48128;54.242;10.280;2022-12-18T12:14:27;102654.00;;;-2.80
25514;BMP180;48128;54.242;10.280;2022-12-18T12:16:59;102647.00;;;-2.80
25514;BMP180;48128;54.242;10.280;2022-12-18T12:30:07;102625.00;;;-3.00
25514;BMP180;48128;54.242;10.280;2022-12-18T12:38:42;102602.00;;;-3.30
25514;BMP180;48128;54.242;10.280;2022-12-18T12:41:20;102591.00;;;-3.30
25514;BMP180;48128;54.242;10.280;2022-12-18T12:44:08;102577.00;;;-3.30
25514;BMP180;48128;54.242;10.280;2022-12-18T12:46:39;102581.00;;;-3.20
25514;BMP180;48128;54.242;10.280;2022-12-18T12:49:14;102558.00;;;-3.20
25514;BMP180;48128;54.242;10.280;2022-12-18T12:51:44;102567.00;;;-3.20
25514;BMP180;48128;54.242;10.280;2022-12-18T12:54:21;102541.00;;;-3.10
25514;BMP180;48128;54.242;10.280;2022-12-18T13:02:53;102540.00;;;-3.20
25514;BMP180;48128;54.242;10.280;2022-12-18T13:08:06;102510.00;;;-3.20
25514;BMP180;48128;54.242;10.280;2022-12-18T13:10:39;102511.00;;;-3.20
25514;BMP180;48128;54.242;10.280;2022-12-18T13:13:10;102498.00;;;-3.20
25514;BMP180;48128;54.242;10.280;2022-12-18T13:15:44;102485.00;;;-3.20
25514;BMP180;48128;54.242;10.280;2022-12-18T13:18:16;102489.00;;;-3.20
25514;BMP180;48128;54.242;10.280;2022-12-18T13:21:15;102474.00;;;-3.10
25514;BMP180;48128;54.242;10.280;2022-12-18T13:23:45;102496.00;;;-3.10
25514;BMP180;48128;54.242;10.280;2022-12-18T13:36:57;102503.00;;;-3.40
25514;BMP180;48128;54.242;10.280;2022-12-18T13:39:43;102506.00;;;-3.50
25514;BMP180;48128;54.242;10.280;2022-12-18T13:44:57;102494.00;;;-3.70
25514;BMP180;48128;54.242;10.280;2022-12-18T13:47:32;102490.00;;;-3.80
25514;BMP180;48128;54.242;10.280;2022-12-18T13:50:01;102486.00;;;-3.90
25514;BMP180;48128;54.242;10.280;2022-12-18T13:52:34;102475.00;;;-4.00
25514;BMP180;48128;54.242;10.280;2022-12-18T13:55:06;102476.00;;;-4.10
25514;BMP180;48128;54.242;10.280;2022-12-18T13:57:36;102470.00;;;-4.20
25514;BMP180;48128;54.242;10.280;2022-12-18T14:00:28;102481.00;;;-4.30
25514;BMP180;48128;54.242;10.280;2022-12-18T14:02:57;102467.00;;;-4.40
25514;BMP180;48128;54.242;10.280;2022-12-18T14:05:26;102479.00;;;-4.40
25514;BMP180;48128;54.242;10.280;2022-12-18T14:07:53;102461.00;;;-4.50
25514;BMP180;48128;54.242;10.280;2022-12-18T14:10:22;102459.00;;;-4.60
25514;BMP180;48128;54.242;10.280;2022-12-18T14:13:13;102451.00;;;-4.70
25514;BMP180;48128;54.242;10.280;2022-12-18T14:15:43;102466.00;;;-4.80
25514;BMP180;48128;54.242;10.280;2022-12-18T14:18:48;102469.00;;;-4.90
25514;BMP180;48128;54.242;10.280;2022-12-18T14:21:26;102474.00;;;-4.90
25514;BMP180;48128;54.242;10.280;2022-12-18T14:24:17;102472.00;;;-5.00
25514;BMP180;48128;54.242;10.280;2022-12-18T14:26:47;102452.00;;;-5.10
25514;BMP180;48128;54.242;10.280;2022-12-18T14:29:29;102438.00;;;-5.10
25514;BMP180;48128;54.242;10.280;2022-12-18T14:32:14;102440.00;;;-5.20
25514;BMP180;48128;54.242;10.280;2022-12-18T14:34:46;102435.00;;;-5.30
25514;BMP180;48128;54.242;10.280;2022-12-18T14:37:15;102437.00;;;-5.40
25514;BMP180;48128;54.242;10.280;2022-12-18T14:39:57;102435.00;;;-5.40
25514;BMP180;48128;54.242;10.280;2022-12-18T14:42:28;102441.00;;;-5.50
25514;BMP180;48128;54.242;10.280;2022-12-18T14:48:09;102423.00;;;-5.60
25514;BMP180;48128;54.242;10.280;2022-12-18T14:50:40;102421.00;;;-5.60
25514;BMP180;48128;54.242;10.280;2022-12-18T14:53:38;102407.00;;;-5.70
25514;BMP180;48128;54.242;10.280;2022-12-18T14:56:32;102411.00;;;-5.80
25514;BMP180;48128;54.242;10.280;2022-12-18T14:59:05;102410.00;;;-5.80
25514;BMP180;48128;54.242;10.280;2022-12-18T15:01:44;102410.00;;;-5.80
25514;BMP180;48128;54.242;10.280;2022-12-18T15:04:35;102406.00;;;-5.80
25514;BMP180;48128;54.242;10.280;2022-12-18T15:07:18;102411.00;;;-5.80
25514;BMP180;48128;54.242;10.280;2022-12-18T15:10:03;102404.00;;;-5.90
25514;BMP180;48128;54.242;10.280;2022-12-18T15:12:37;102388.00;;;-5.80
25514;BMP180;48128;54.242;10.280;2022-12-18T15:20:49;102378.00;;;-5.80
25514;BMP180;48128;54.242;10.280;2022-12-18T15:25:56;102367.00;;;-5.80
25514;BMP180;48128;54.242;10.280;2022-12-18T15:28:32;102365.00;;;-5.80
25514;BMP180;48128;54.242;10.280;2022-12-18T15:33:46;102351.00;;;-5.70
25514;BMP180;48128;54.242;10.280;2022-12-18T15:36:29;102361.00;;;-5.80
25514;BMP180;48128;54.242;10.280;2022-12-18T15:38:57;102363.00;;;-5.80
25514;BMP180;48128;54.242;10.280;2022-12-18T15:41:32;102352.00;;;-5.80
25514;BMP180;48128;54.242;10.280;2022-12-18T15:44:02;102352.00;;;-5.80
25514;BMP180;48128;54.242;10.280;2022-12-18T15:46:29;102361.00;;;-5.80
25514;BMP180;48128;54.242;10.280;2022-12-18T15:48:58;102352.00;;;-5.80
25514;BMP180;48128;54.242;10.280;2022-12-18T15:51:33;102360.00;;;-5.80
25514;BMP180;48128;54.242;10.280;2022-12-18T15:54:02;102340.00;;;-5.80
25514;BMP180;48128;54.242;10.280;2022-12-18T15:56:32;102335.00;;;-5.70
25514;BMP180;48128;54.242;10.280;2022-12-18T15:59:19;102335.00;;;-5.70
25514;BMP180;48128;54.242;10.280;2022-12-18T16:01:48;102329.00;;;-5.60
25514;BMP180;48128;54.242;10.280;2022-12-18T16:04:17;102330.00;;;-5.70
25514;BMP180;48128;54.242;10.280;2022-12-18T16:06:48;102348.00;;;-5.70
25514;BMP180;48128;54.242;10.280;2022-12-18T16:09:36;102328.00;;;-5.70
25514;BMP180;48128;54.242;10.280;2022-12-18T16:12:03;102321.00;;;-5.60
25514;BMP180;48128;54.242;10.280;2022-12-18T16:14:31;102335.00;;;-5.60
25514;BMP180;48128;54.242;10.280;2022-12-18T16:17:02;102332.00;;;-5.60
25514;BMP180;48128;54.242;10.280;2022-12-18T16:19:30;102330.00;;;-5.50
25514;BMP180;48128;54.242;10.280;2022-12-18T16:21:57;102336.00;;;-5.50
25514;BMP180;48128;54.242;10.280;2022-12-18T16:24:27;102325.00;;;-5.50
25514;BMP180;48128;54.242;10.280;2022-12-18T16:26:55;102316.00;;;-5.50
25514;BMP180;48128;54.242;10.280;2022-12-18T16:29:22;102312.00;;;-5.50
25514;BMP180;48128;54.242;10.280;2022-12-18T16:31:57;102298.00;;;-5.60
25514;BMP180;48128;54.242;10.280;2022-12-18T16:34:27;102304.00;;;-5.50
25514;BMP180;48128;54.242;10.280;2022-12-18T16:37:00;102313.00;;;-5.40
25514;BMP180;48128;54.242;10.280;2022-12-18T16:39:32;102314.00;;;-5.40
25514;BMP180;48128;54.242;10.280;2022-12-18T16:42:13;102324.00;;;-5.40
25514;BMP180;48128;54.242;10.280;2022-12-18T16:44:41;102329.00;;;-5.40
25514;BMP180;48128;54.242;10.280;2022-12-18T16:47:09;102323.00;;;-5.40
25514;BMP180;48128;54.242;10.280;2022-12-18T16:49:38;102324.00;;;-5.40
25514;BMP180;48128;54.242;10.280;2022-12-18T16:52:05;102330.00;;;-5.30
25514;BMP180;48128;54.242;10.280;2022-12-18T16:54:33;102318.00;;;-5.20
25514;BMP180;48128;54.242;10.280;2022-12-18T16:57:02;102307.00;;;-5.20
25514;BMP180;48128;54.242;10.280;2022-12-18T16:59:31;102310.00;;;-5.10
25514;BMP180;48128;54.242;10.280;2022-12-18T17:01:58;102293.00;;;-5.10
25514;BMP180;48128;54.242;10.280;2022-12-18T17:04:25;102302.00;;;-5.10
25514;BMP180;48128;54.242;10.280;2022-12-18T17:06:52;102303.00;;;-5.10
25514;BMP180;48128;54.242;10.280;2022-12-18T17:09:20;102301.00;;;-5.10
25514;BMP180;48128;54.242;10.280;2022-12-18T17:11:54;102309.00;;;-5.10
25514;BMP180;48128;54.242;10.280;2022-12-18T17:14:22;102318.00;;;-5.10
25514;BMP180;48128;54.242;10.280;2022-12-18T17:16:50;102297.00;;;-5.00
25514;BMP180;48128;54.242;10.280;2022-12-18T17:19:37;102294.00;;;-5.00
25514;BMP180;48128;54.242;10.280;2022-12-18T17:22:04;102305.00;;;-5.00
25514;BMP180;48128;54.242;10.280;2022-12-18T17:24:31;102287.00;;;-5.00
25514;BMP180;48128;54.242;10.280;2022-12-18T17:27:01;102286.00;;;-5.00
25514;BMP180;48128;54.242;10.280;2022-12-18T17:29:28;102270.00;;;-5.00
25514;BMP180;48128;54.242;10.280;2022-12-18T17:31:55;102288.00;;;-5.00
25514;BMP180;48128;54.242;10.280;2022-12-18T17:34:24;102280.00;;;-5.00
25514;BMP180;48128;54.242;10.280;2022-12-18T17:36:51;102278.00;;;-5.00
25514;BMP180;48128;54.242;10.280;2022-12-18T17:39:19;102260.00;;;-5.00
25514;BMP180;48128;54.242;10.280;2022-12-18T17:41:47;102274.00;;;-4.90
25514;BMP180;48128;54.242;10.280;2022-12-18T17:44:15;102272.00;;;-4.90
25514;BMP180;48128;54.242;10.280;2022-12-18T17:46:42;102283.00;;;-4.80
25514;BMP180;48128;54.242;10.280;2022-12-18T17:49:09;102271.00;;;-4.80
25514;BMP180;48128;54.242;10.280;2022-12-18T17:51:37;102264.00;;;-4.80
25514;BMP180;48128;54.242;10.280;2022-12-18T17:54:04;102272.00;;;-4.80
25514;BMP180;48128;54.242;10.280;2022-12-18T17:56:31;102274.00;;;-4.70
25514;BMP180;48128;54.242;10.280;2022-12-18T17:58:58;102262.00;;;-4.70
25514;BMP180;48128;54.242;10.280;2022-12-18T18:01:26;102266.00;;;-4.70
25514;BMP180;48128;54.242;10.280;2022-12-18T18:03:53;102260.00;;;-4.70
25514;BMP180;48128;54.242;10.280;2022-12-18T18:06:22;102251.00;;;-4.70
25514;BMP180;48128;54.242;10.280;2022-12-18T18:08:49;102248.00;;;-4.70
25514;BMP180;48128;54.242;10.280;2022-12-18T18:11:18;102236.00;;;-4.70
25514;BMP180;48128;54.242;10.280;2022-12-18T18:14:09;102224.00;;;-4.70
25514;BMP180;48128;54.242;10.280;2022-12-18T18:16:41;102224.00;;;-4.70
25514;BMP180;48128;54.242;10.280;2022-12-18T18:19:15;102225.00;;;-4.70
25514;BMP180;48128;54.242;10.280;2022-12-18T18:21:43;102216.00;;;-4.70
25514;BMP180;48128;54.242;10.280;2022-12-18T18:24:13;102213.00;;;-4.80
25514;BMP180;48128;54.242;10.280;2022-12-18T18:26:40;102202.00;;;-4.80
25514;BMP180;48128;54.242;10.280;2022-12-18T18:29:14;102203.00;;;-4.80
25514;BMP180;48128;54.242;10.280;2022-12-18T18:31:41;102201.00;;;-4.80
25514;BMP180;48128;54.242;10.280;2022-12-18T18:34:17;102196.00;;;-4.70
25514;BMP180;48128;54.242;10.280;2022-12-18T18:36:44;102196.00;;;-4.70
25514;BMP180;48128;54.242;10.280;2022-12-18T18:39:12;102199.00;;;-4.70
25514;BMP180;48128;54.242;10.280;2022-12-18T18:41:39;102190.00;;;-4.60
25514;BMP180;48128;54.242;10.280;2022-12-18T18:44:10;102182.00;;;-4.60
25514;BMP180;48128;54.242;10.280;2022-12-18T18:46:37;102169.00;;;-4.60
25514;BMP180;48128;54.242;10.280;2022-12-18T18:49:05;102181.00;;;-4.60
25514;BMP180;48128;54.242;10.280;2022-12-18T18:51:32;102173.00;;;-4.60
25514;BMP180;48128;54.242;10.280;2022-12-18T18:54:01;102171.00;;;-4.60
25514;BMP180;48128;54.242;10.280;2022-12-18T18:56:28;102159.00;;;-4.60
25514;BMP180;48128;54.242;10.280;2022-12-18T18:59:15;102148.00;;;-4.60
25514;BMP180;48128;54.242;10.280;2022-12-18T19:01:42;102153.00;;;-4.60
25514;BMP180;48128;54.242;10.280;2022-12-18T19:04:10;102164.00;;;-4.60
25514;BMP180;48128;54.242;10.280;2022-12-18T19:06:39;102170.00;;;-4.60
25514;BMP180;48128;54.242;10.280;2022-12-18T19:09:07;102148.00;;;-4.50
25514;BMP180;48128;54.242;10.280;2022-12-18T19:11:34;102141.00;;;-4.50
25514;BMP180;48128;54.242;10.280;2022-12-18T19:14:20;102157.00;;;-4.50
25514;BMP180;48128;54.242;10.280;2022-12-18T19:16:47;102132.00;;;-4.50
25514;BMP180;48128;54.242;10.280;2022-12-18T19:19:14;102146.00;;;-4.40
25514;BMP180;48128;54.242;10.280;2022-12-18T19:21:47;102135.00;;;-4.40
25514;BMP180;48128;54.242;10.280;2022-12-18T19:24:14;102137.00;;;-4.50
25514;BMP180;48128;54.242;10.280;2022-12-18T19:26:41;102142.00;;;-4.40
25514;BMP180;48128;54.242;10.280;2022-12-18T19:29:08;102138.00;;;-4.40
25514;BMP180;48128;54.242;10.280;2022-12-18T19:31:35;102112.00;;;-4.40
25514;BMP180;48128;54.242;10.280;2022-12-18T19:34:04;102110.00;;;-4.40
25514;BMP180;48128;54.242;10.280;2022-12-18T19:36:34;102129.00;;;-4.40
25514;BMP180;48128;54.242;10.280;2022-12-18T19:39:10;102115.00;;;-4.40
25514;BMP180;48128;54.242;10.280;2022-12-18T19:41:37;102106.00;;;-4.40
